sensor_id;sensor_type;location;lat;lon;timestamp;pressure;altitude;pressure_sealevel;temperature;humidity
11001;BME280;5553;48.506;8.870;2023-05-19T00:01:43;96893.34;;;9.95;100.00
11001;BME280;5553;48.506;8.870;2023-05-19T00:04:13;96880.97;;;9.95;100.00
11001;BME280;5553;48.506;8.870;2023-05-19T00:06:42;96886.53;;;10.01;100.00
11001;BME280;5553;48.506;8.870;2023-05-19T00:09:11;96882.41;;;9.98;100.00
11001;BME280;5553;48.506;8.870;2023-05-19T00:11:43;96882.59;;;9.96;100.00
11001;BME280;5553;48.506;8.870;2023-05-19T00:14:11;96873.69;;;9.97;100.00
11001;BME280;5553;48.506;8.870;2023-05-19T00:16:40;96882.81;;;9.95;100.00
11001;BME280;5553;48.506;8.870;2023-05-19T00:19:09;96872.63;;;9.92;100.00
11001;BME280;5553;48.506;8.870;2023-05-19T00:21:37;96874.50;;;9.98;100.00
11001;BME280;5553;48.506;8.870;2023-05-19T00:24:06;96880.31;;;9.93;100.00
11001;BME280;5553;48.506;8.870;2023-05-19T00:26:34;96885.69;;;9.85;100.00
11001;BME280;5553;48.506;8.870;2023-05-19T00:29:05;96877.59;;;9.87;100.00
11001;BME280;5553;48.506;8.870;2023-05-19T00:31:33;96891.31;;;9.82;100.00
11001;BME280;5553;48.506;8.870;2023-05-19T00:34:01;96888.00;;;9.80;100.00
11001;BME280;5553;48.506;8.870;2023-05-19T00:36:30;96893.75;;;9.84;100.00
11001;BME280;5553;48.506;8.870;2023-05-19T00:38:58;96897.28;;;9.76;100.00
11001;BME280;5553;48.506;8.870;2023-05-19T00:41:26;96882.13;;;9.78;100.00
11001;BME280;5553;48.506;8.870;2023-05-19T00:43:54;96873.47;;;9.84;100.00
11001;BME280;5553;48.506;8.870;2023-05-19T00:46:25;96863.25;;;9.89;100.00
11001;BME280;5553;48.506;8.870;2023-05-19T00:48:54;96864.59;;;9.85;100.00
11001;BME280;5553;48.506;8.870;2023-05-19T00:51:25;96860.59;;;9.89;100.00
11001;BME280;5553;48.506;8.870;2023-05-19T00:53:54;96849.41;;;9.87;100.00
11001;BME280;5553;48.506;8.870;2023-05-19T00:56:22;96852.84;;;9.88;100.00
11001;BME280;5553;48.506;8.870;2023-05-19T00:58:51;96847.13;;;9.84;100.00
11001;BME280;5553;48.506;8.870;2023-05-19T01:01:20;96849.88;;;9.91;100.00
11001;BME280;5553;48.506;8.870;2023-05-19T01:03:53;96841.34;;;9.89;100.00
11001;BME280;5553;48.506;8.870;2023-05-19T01:06:23;96843.78;;;9.90;100.00
11001;BME280;5553;48.506;8.870;2023-05-19T01:08:52;96831.78;;;9.88;100.00
11001;BME280;5553;48.506;8.870;2023-05-19T01:11:21;96841.50;;;9.87;100.00
11001;BME280;5553;48.506;8.870;2023-05-19T01:13:50;96838.31;;;9.77;100.00
11001;BME280;5553;48.506;8.870;2023-05-19T01:16:24;96856.00;;;9.68;100.00
11001;BME280;5553;48.506;8.870;2023-05-19T01:19:03;96870.59;;;9.56;100.00
11001;BME280;5553;48.506;8.870;2023-05-19T01:21:57;96876.72;;;9.48;100.00
11001;BME280;5553;48.506;8.870;2023-05-19T01:24:48;96872.81;;;9.44;100.00
11001;BME280;5553;48.506;8.870;2023-05-19T01:30:29;96891.13;;;9.38;100.00
11001;BME280;5553;48.506;8.870;2023-05-19T01:33:00;96890.19;;;9.31;100.00
11001;BME280;5553;48.506;8.870;2023-05-19T01:35:29;96878.84;;;9.30;100.00
11001;BME280;5553;48.506;8.870;2023-05-19T01:37:59;96872.59;;;9.23;100.00
11001;BME280;5553;48.506;8.870;2023-05-19T01:40:29;96872.56;;;9.31;100.00
11001;BME280;5553;48.506;8.870;2023-05-19T01:42:59;96872.91;;;9.28;100.00
11001;BME280;5553;48.506;8.870;2023-05-19T01:45:32;96871.91;;;9.29;100.00
11001;BME280;5553;48.506;8.870;2023-05-19T01:48:02;96874.41;;;9.22;100.00
11001;BME280;5553;48.506;8.870;2023-05-19T01:50:31;96870.34;;;9.20;100.00
11001;BME280;5553;48.506;8.870;2023-05-19T01:53:00;96864.75;;;9.15;100.00
11001;BME280;5553;48.506;8.870;2023-05-19T01:55:28;96866.78;;;9.13;100.00
11001;BME280;5553;48.506;8.870;2023-05-19T01:58:06;96868.09;;;9.09;100.00
11001;BME280;5553;48.506;8.870;2023-05-19T02:00:51;96857.91;;;9.06;100.00
11001;BME280;5553;48.506;8.870;2023-05-19T02:03:41;96864.84;;;8.98;100.00
11001;BME280;5553;48.506;8.870;2023-05-19T02:06:20;96865.03;;;8.97;100.00
11001;BME280;5553;48.506;8.870;2023-05-19T02:08:56;96858.66;;;8.91;100.00
11001;BME280;5553;48.506;8.870;2023-05-19T02:11:31;96874.09;;;8.94;100.00
11001;BME280;5553;48.506;8.870;2023-05-19T02:14:07;96870.84;;;8.92;100.00
11001;BME280;5553;48.506;8.870;2023-05-19T02:16:44;96869.00;;;8.93;100.00
11001;BME280;5553;48.506;8.870;2023-05-19T02:19:20;96870.97;;;8.91;100.00
11001;BME280;5553;48.506;8.870;2023-05-19T02:21:48;96868.22;;;8.84;100.00
11001;BME280;5553;48.506;8.870;2023-05-19T02:24:17;96870.56;;;8.79;100.00
11001;BME280;5553;48.506;8.870;2023-05-19T02:26:47;96862.38;;;8.66;100.00
11001;BME280;5553;48.506;8.870;2023-05-19T02:29:16;96874.53;;;8.67;100.00
11001;BME280;5553;48.506;8.870;2023-05-19T02:31:47;96869.63;;;8.64;100.00
11001;BME280;5553;48.506;8.870;2023-05-19T02:34:15;96870.97;;;8.60;100.00
11001;BME280;5553;48.506;8.870;2023-05-19T02:36:43;96870.97;;;8.60;100.00
11001;BME280;5553;48.506;8.870;2023-05-19T02:39:14;96869.00;;;8.53;100.00
11001;BME280;5553;48.506;8.870;2023-05-19T02:41:43;96875.22;;;8.61;100.00
11001;BME280;5553;48.506;8.870;2023-05-19T02:44:11;96870.63;;;8.54;100.00
11001;BME280;5553;48.506;8.870;2023-05-19T02:46:39;96872.28;;;8.56;100.00
11001;BME280;5553;48.506;8.870;2023-05-19T02:49:10;96860.47;;;8.51;100.00
11001;BME280;5553;48.506;8.870;2023-05-19T02:51:38;96863.59;;;8.47;100.00
11001;BME280;5553;48.506;8.870;2023-05-19T02:54:06;96860.00;;;8.48;100.00
11001;BME280;5553;48.506;8.870;2023-05-19T02:56:35;96860.47;;;8.43;100.00
11001;BME280;5553;48.506;8.870;2023-05-19T02:59:03;96850.97;;;8.42;100.00
11001;BME280;5553;48.506;8.870;2023-05-19T03:01:31;96854.59;;;8.41;100.00
11001;BME280;5553;48.506;8.870;2023-05-19T03:04:01;96852.94;;;8.40;100.00
11001;BME280;5553;48.506;8.870;2023-05-19T03:06:32;96860.81;;;8.40;100.00
11001;BME280;5553;48.506;8.870;2023-05-19T03:09:01;96859.16;;;8.47;100.00
11001;BME280;5553;48.506;8.870;2023-05-19T03:11:29;96857.56;;;8.38;100.00
11001;BME280;5553;48.506;8.870;2023-05-19T03:13:57;96857.19;;;8.33;100.00
11001;BME280;5553;48.506;8.870;2023-05-19T03:16:25;96866.56;;;8.36;100.00
11001;BME280;5553;48.506;8.870;2023-05-19T03:18:54;96856.56;;;8.39;100.00
11001;BME280;5553;48.506;8.870;2023-05-19T03:21:22;96861.13;;;8.37;100.00
11001;BME280;5553;48.506;8.870;2023-05-19T03:23:53;96855.22;;;8.43;100.00
11001;BME280;5553;48.506;8.870;2023-05-19T03:26:22;96862.47;;;8.41;100.00
11001;BME280;5553;48.506;8.870;2023-05-19T03:28:50;96862.63;;;8.40;100.00
11001;BME280;5553;48.506;8.870;2023-05-19T03:31:18;96860.97;;;8.47;100.00
11001;BME280;5553;48.506;8.870;2023-05-19T03:33:47;96866.38;;;8.37;100.00
11001;BME280;5553;48.506;8.870;2023-05-19T03:36:15;96865.75;;;8.35;100.00
11001;BME280;5553;48.506;8.870;2023-05-19T03:38:43;96873.34;;;8.38;100.00
11001;BME280;5553;48.506;8.870;2023-05-19T03:41:14;96874.16;;;8.39;100.00
11001;BME280;5553;48.506;8.870;2023-05-19T03:43:42;96875.16;;;8.38;100.00
11001;BME280;5553;48.506;8.870;2023-05-19T03:46:10;96868.72;;;8.40;100.00
11001;BME280;5553;48.506;8.870;2023-05-19T03:48:39;96870.69;;;8.38;100.00
11001;BME280;5553;48.506;8.870;2023-05-19T03:51:07;96877.59;;;8.39;100.00
11001;BME280;5553;48.506;8.870;2023-05-19T03:53:36;96874.16;;;8.39;100.00
11001;BME280;5553;48.506;8.870;2023-05-19T03:56:05;96872.97;;;8.33;100.00
11001;BME280;5553;48.506;8.870;2023-05-19T03:58:38;96871.34;;;8.32;100.00
11001;BME280;5553;48.506;8.870;2023-05-19T04:01:09;96871.34;;;8.32;100.00
11001;BME280;5553;48.506;8.870;2023-05-19T04:03:38;96868.84;;;8.30;100.00
11001;BME280;5553;48.506;8.870;2023-05-19T04:06:06;96874.16;;;8.39;100.00
11001;BME280;5553;48.506;8.870;2023-05-19T04:08:35;96879.53;;;8.37;100.00
11001;BME280;5553;48.506;8.870;2023-05-19T04:11:03;96878.25;;;8.41;100.00
11001;BME280;5553;48.506;8.870;2023-05-19T04:13:32;96879.22;;;8.40;100.00
11001;BME280;5553;48.506;8.870;2023-05-19T04:16:04;96880.22;;;8.39;100.00
11001;BME280;5553;48.506;8.870;2023-05-19T04:18:32;96878.56;;;8.46;100.00
11001;BME280;5553;48.506;8.870;2023-05-19T04:21:00;96877.88;;;8.44;100.00
11001;BME280;5553;48.506;8.870;2023-05-19T04:23:29;96878.41;;;8.40;100.00
11001;BME280;5553;48.506;8.870;2023-05-19T04:25:57;96869.66;;;8.47;100.00
11001;BME280;5553;48.506;8.870;2023-05-19T04:28:26;96882.00;;;8.55;100.00
11001;BME280;5553;48.506;8.870;2023-05-19T04:30:54;96875.88;;;8.54;100.00
11001;BME280;5553;48.506;8.870;2023-05-19T04:33:25;96871.25;;;8.65;100.00
11001;BME280;5553;48.506;8.870;2023-05-19T04:35:53;96875.22;;;8.61;100.00
11001;BME280;5553;48.506;8.870;2023-05-19T04:38:22;96871.25;;;8.65;100.00
11001;BME280;5553;48.506;8.870;2023-05-19T04:40:52;96872.38;;;8.70;100.00
11001;BME280;5553;48.506;8.870;2023-05-19T04:43:20;96872.88;;;8.74;100.00
11001;BME280;5553;48.506;8.870;2023-05-19T04:45:48;96872.22;;;8.72;100.00
11001;BME280;5553;48.506;8.870;2023-05-19T04:48:17;96870.38;;;8.81;100.00
11001;BME280;5553;48.506;8.870;2023-05-19T04:50:48;96881.56;;;8.83;100.00
11001;BME280;5553;48.506;8.870;2023-05-19T04:53:17;96872.81;;;8.90;100.00
11001;BME280;5553;48.506;8.870;2023-05-19T04:55:46;96881.34;;;8.92;100.00
11001;BME280;5553;48.506;8.870;2023-05-19T04:58:14;96879.63;;;9.08;100.00
11001;BME280;5553;48.506;8.870;2023-05-19T05:00:42;96878.41;;;9.18;100.00
11001;BME280;5553;48.506;8.870;2023-05-19T05:03:10;96873.38;;;9.32;100.00
11001;BME280;5553;48.506;8.870;2023-05-19T05:05:39;96870.34;;;9.43;100.00
11001;BME280;5553;48.506;8.870;2023-05-19T05:08:10;96877.53;;;9.49;100.00
11001;BME280;5553;48.506;8.870;2023-05-19T05:10:40;96869.41;;;9.59;100.00
11001;BME280;5553;48.506;8.870;2023-05-19T05:13:09;96878.94;;;9.60;100.00
11001;BME280;5553;48.506;8.870;2023-05-19T05:15:38;96864.88;;;9.67;100.00
11001;BME280;5553;48.506;8.870;2023-05-19T05:18:07;96868.00;;;9.71;100.00
11001;BME280;5553;48.506;8.870;2023-05-19T05:20:36;96864.72;;;9.69;100.00
11001;BME280;5553;48.506;8.870;2023-05-19T05:23:05;96857.81;;;9.68;100.00
11001;BME280;5553;48.506;8.870;2023-05-19T05:25:37;96862.81;;;9.78;100.00
11001;BME280;5553;48.506;8.870;2023-05-19T05:28:05;96856.59;;;9.93;100.00
11001;BME280;5553;48.506;8.870;2023-05-19T05:30:34;96844.94;;;9.88;100.00
11001;BME280;5553;48.506;8.870;2023-05-19T05:33:02;96844.50;;;9.84;100.00
11001;BME280;5553;48.506;8.870;2023-05-19T05:35:31;96840.53;;;9.88;100.00
11001;BME280;5553;48.506;8.870;2023-05-19T05:37:59;96848.69;;;9.93;100.00
11001;BME280;5553;48.506;8.870;2023-05-19T05:40:28;96849.81;;;9.99;100.00
11001;BME280;5553;48.506;8.870;2023-05-19T05:42:59;96842.81;;;10.21;100.00
11001;BME280;5553;48.506;8.870;2023-05-19T05:45:27;96842.03;;;10.35;100.00
11001;BME280;5553;48.506;8.870;2023-05-19T05:47:56;96847.59;;;10.40;100.00
11001;BME280;5553;48.506;8.870;2023-05-19T05:50:25;96849.22;;;10.56;100.00
11001;BME280;5553;48.506;8.870;2023-05-19T05:52:54;96842.59;;;10.46;100.00
11001;BME280;5553;48.506;8.870;2023-05-19T05:55:25;96839.19;;;10.66;100.00
11001;BME280;5553;48.506;8.870;2023-05-19T05:57:53;96824.50;;;10.94;100.00
11001;BME280;5553;48.506;8.870;2023-05-19T06:00:25;96827.66;;;11.04;100.00
11001;BME280;5553;48.506;8.870;2023-05-19T06:02:54;96827.56;;;11.33;100.00
11001;BME280;5553;48.506;8.870;2023-05-19T06:05:23;96821.19;;;11.43;100.00
11001;BME280;5553;48.506;8.870;2023-05-19T06:07:51;96812.84;;;11.67;100.00
11001;BME280;5553;48.506;8.870;2023-05-19T06:10:20;96817.94;;;11.90;100.00
11001;BME280;5553;48.506;8.870;2023-05-19T06:12:48;96826.59;;;12.05;100.00
11001;BME280;5553;48.506;8.870;2023-05-19T06:15:16;96807.41;;;11.75;100.00
11001;BME280;5553;48.506;8.870;2023-05-19T06:17:47;96809.19;;;11.68;100.00
11001;BME280;5553;48.506;8.870;2023-05-19T06:20:17;96799.00;;;11.65;100.00
11001;BME280;5553;48.506;8.870;2023-05-19T06:22:45;96800.59;;;11.59;100.00
11001;BME280;5553;48.506;8.870;2023-05-19T06:25:13;96788.84;;;11.69;100.00
11001;BME280;5553;48.506;8.870;2023-05-19T06:27:41;96788.81;;;11.62;100.00
11001;BME280;5553;48.506;8.870;2023-05-19T06:30:11;96794.06;;;11.83;100.00
11001;BME280;5553;48.506;8.870;2023-05-19T06:32:39;96791.91;;;11.87;100.00
11001;BME280;5553;48.506;8.870;2023-05-19T06:35:10;96797.63;;;11.91;100.00
11001;BME280;5553;48.506;8.870;2023-05-19T06:37:38;96796.59;;;11.92;100.00
11001;BME280;5553;48.506;8.870;2023-05-19T06:40:07;96801.59;;;12.08;100.00
11001;BME280;5553;48.506;8.870;2023-05-19T06:42:36;96792.81;;;12.36;100.00
11001;BME280;5553;48.506;8.870;2023-05-19T06:45:05;96790.63;;;12.46;100.00
11001;BME280;5553;48.506;8.870;2023-05-19T06:47:34;96785.94;;;12.96;100.00
11001;BME280;5553;48.506;8.870;2023-05-19T06:50:03;96774.22;;;13.45;100.00
11001;BME280;5553;48.506;8.870;2023-05-19T06:52:34;96764.44;;;13.45;99.20
11001;BME280;5553;48.506;8.870;2023-05-19T06:55:03;96753.03;;;13.65;97.38
11001;BME280;5553;48.506;8.870;2023-05-19T06:57:31;96763.63;;;13.38;97.78
11001;BME280;5553;48.506;8.870;2023-05-19T07:00:00;96766.06;;;13.80;97.20
11001;BME280;5553;48.506;8.870;2023-05-19T07:02:29;96774.63;;;13.82;97.36
11001;BME280;5553;48.506;8.870;2023-05-19T07:04:57;96763.63;;;13.38;96.66
11001;BME280;5553;48.506;8.870;2023-05-19T07:07:25;96757.63;;;12.96;96.43
11001;BME280;5553;48.506;8.870;2023-05-19T07:09:56;96761.06;;;12.90;96.71
11001;BME280;5553;48.506;8.870;2023-05-19T07:12:24;96779.44;;;13.12;98.75
11001;BME280;5553;48.506;8.870;2023-05-19T07:14:53;96769.38;;;12.80;97.33
11001;BME280;5553;48.506;8.870;2023-05-19T07:17:21;96776.81;;;12.57;98.82
11001;BME280;5553;48.506;8.870;2023-05-19T07:19:49;96793.00;;;12.41;100.00
11001;BME280;5553;48.506;8.870;2023-05-19T07:22:18;96785.31;;;12.46;100.00
11001;BME280;5553;48.506;8.870;2023-05-19T07:24:46;96769.31;;;12.19;99.63
11001;BME280;5553;48.506;8.870;2023-05-19T07:27:17;96766.47;;;12.21;98.53
11001;BME280;5553;48.506;8.870;2023-05-19T07:29:46;96782.38;;;12.27;100.00
11001;BME280;5553;48.506;8.870;2023-05-19T07:32:14;96795.19;;;12.30;100.00
11001;BME280;5553;48.506;8.870;2023-05-19T07:34:42;96787.31;;;12.02;100.00
11001;BME280;5553;48.506;8.870;2023-05-19T07:37:11;96771.03;;;11.77;100.00
11001;BME280;5553;48.506;8.870;2023-05-19T07:39:40;96775.25;;;11.72;100.00
11001;BME280;5553;48.506;8.870;2023-05-19T07:42:08;96773.97;;;11.61;100.00
11001;BME280;5553;48.506;8.870;2023-05-19T07:44:39;96784.16;;;11.64;100.00
11001;BME280;5553;48.506;8.870;2023-05-19T07:47:08;96780.28;;;11.60;100.00
11001;BME280;5553;48.506;8.870;2023-05-19T07:49:36;96786.84;;;11.71;100.00
11001;BME280;5553;48.506;8.870;2023-05-19T07:52:05;96806.94;;;11.87;100.00
11001;BME280;5553;48.506;8.870;2023-05-19T07:54:33;96785.16;;;11.84;100.00
11001;BME280;5553;48.506;8.870;2023-05-19T07:57:01;96791.16;;;12.00;100.00
11001;BME280;5553;48.506;8.870;2023-05-19T07:59:30;96787.13;;;12.04;100.00
11001;BME280;5553;48.506;8.870;2023-05-19T08:02:01;96787.13;;;12.04;100.00
11001;BME280;5553;48.506;8.870;2023-05-19T08:04:29;96784.41;;;12.25;100.00
11001;BME280;5553;48.506;8.870;2023-05-19T08:06:57;96773.41;;;12.22;99.59
11001;BME280;5553;48.506;8.870;2023-05-19T08:09:25;96757.56;;;12.28;97.72
11001;BME280;5553;48.506;8.870;2023-05-19T08:11:54;96768.22;;;12.42;97.83
11001;BME280;5553;48.506;8.870;2023-05-19T08:14:22;96761.78;;;12.64;97.78
11001;BME280;5553;48.506;8.870;2023-05-19T08:16:51;96753.03;;;12.70;96.09
11001;BME280;5553;48.506;8.870;2023-05-19T08:19:22;96749.59;;;12.70;96.77
11001;BME280;5553;48.506;8.870;2023-05-19T08:21:51;96759.81;;;12.86;97.14
11001;BME280;5553;48.506;8.870;2023-05-19T08:24:20;96746.22;;;12.96;95.48
11001;BME280;5553;48.506;8.870;2023-05-19T08:26:48;96742.75;;;13.02;94.63
11001;BME280;5553;48.506;8.870;2023-05-19T08:29:16;96765.81;;;13.21;97.16
11001;BME280;5553;48.506;8.870;2023-05-19T08:31:44;96745.25;;;13.63;95.05
11001;BME280;5553;48.506;8.870;2023-05-19T08:34:13;96749.72;;;13.30;95.62
11001;BME280;5553;48.506;8.870;2023-05-19T08:36:44;96740.78;;;13.24;94.28
11001;BME280;5553;48.506;8.870;2023-05-19T08:39:12;96731.41;;;13.35;92.35
11001;BME280;5553;48.506;8.870;2023-05-19T08:41:42;96724.66;;;13.25;91.71
11001;BME280;5553;48.506;8.870;2023-05-19T08:44:11;96737.50;;;13.35;93.90
11001;BME280;5553;48.506;8.870;2023-05-19T08:46:39;96747.72;;;13.45;94.18
11001;BME280;5553;48.506;8.870;2023-05-19T08:49:10;96740.56;;;13.39;94.09
11001;BME280;5553;48.506;8.870;2023-05-19T08:51:49;96741.53;;;13.11;94.38
11001;BME280;5553;48.506;8.870;2023-05-19T08:54:23;96729.72;;;13.07;93.61
11001;BME280;5553;48.506;8.870;2023-05-19T08:56:52;96742.72;;;12.82;95.22
11001;BME280;5553;48.506;8.870;2023-05-19T08:59:21;96730.47;;;12.81;94.21
11001;BME280;5553;48.506;8.870;2023-05-19T09:01:52;96735.81;;;12.94;94.62
11001;BME280;5553;48.506;8.870;2023-05-19T09:04:21;96745.19;;;12.97;96.51
11001;BME280;5553;48.506;8.870;2023-05-19T09:06:54;96750.03;;;12.80;96.94
11001;BME280;5553;48.506;8.870;2023-05-19T09:09:26;96741.03;;;12.68;96.09
11001;BME280;5553;48.506;8.870;2023-05-19T09:11:55;96738.81;;;12.85;95.33
11001;BME280;5553;48.506;8.870;2023-05-19T09:14:25;96723.72;;;12.78;94.30
11001;BME280;5553;48.506;8.870;2023-05-19T09:16:54;96736.56;;;12.75;95.14
11001;BME280;5553;48.506;8.870;2023-05-19T09:19:22;96748.41;;;12.79;96.63
11001;BME280;5553;48.506;8.870;2023-05-19T09:22:01;96741.44;;;12.71;95.49
11001;BME280;5553;48.506;8.870;2023-05-19T09:24:30;96761.31;;;12.54;98.22
11001;BME280;5553;48.506;8.870;2023-05-19T09:26:58;96759.53;;;12.61;98.46
11001;BME280;5553;48.506;8.870;2023-05-19T09:29:27;96765.63;;;12.55;99.05
11001;BME280;5553;48.506;8.870;2023-05-19T09:31:55;96769.47;;;12.52;100.00
11001;BME280;5553;48.506;8.870;2023-05-19T09:34:25;96750.31;;;12.50;98.17
11001;BME280;5553;48.506;8.870;2023-05-19T09:36:53;96758.91;;;12.59;98.97
11001;BME280;5553;48.506;8.870;2023-05-19T09:39:25;96761.47;;;12.94;99.36
11001;BME280;5553;48.506;8.870;2023-05-19T09:41:53;96750.09;;;13.00;98.62
11001;BME280;5553;48.506;8.870;2023-05-19T09:44:23;96742.72;;;12.95;97.32
11001;BME280;5553;48.506;8.870;2023-05-19T09:46:54;96743.94;;;12.86;97.74
11001;BME280;5553;48.506;8.870;2023-05-19T09:49:23;96748.00;;;12.89;98.72
11001;BME280;5553;48.506;8.870;2023-05-19T09:51:54;96746.38;;;12.88;97.42
11001;BME280;5553;48.506;8.870;2023-05-19T09:54:25;96751.06;;;12.86;97.67
11001;BME280;5553;48.506;8.870;2023-05-19T09:56:57;96742.75;;;13.02;96.19
11001;BME280;5553;48.506;8.870;2023-05-19T09:59:26;96743.31;;;12.91;96.87
11001;BME280;5553;48.506;8.870;2023-05-19T10:01:56;96746.97;;;12.76;97.78
11001;BME280;5553;48.506;8.870;2023-05-19T10:04:25;96754.88;;;12.70;99.39
11001;BME280;5553;48.506;8.870;2023-05-19T10:06:55;96755.28;;;12.67;98.89
11001;BME280;5553;48.506;8.870;2023-05-19T10:09:27;96727.56;;;12.56;95.21
11001;BME280;5553;48.506;8.870;2023-05-19T10:11:56;96745.09;;;12.70;96.92
11001;BME280;5553;48.506;8.870;2023-05-19T10:14:27;96729.66;;;12.80;95.72
11001;BME280;5553;48.506;8.870;2023-05-19T10:16:57;96747.44;;;13.07;97.66
11001;BME280;5553;48.506;8.870;2023-05-19T10:19:26;96750.34;;;13.32;96.87
11001;BME280;5553;48.506;8.870;2023-05-19T10:21:54;96742.78;;;13.22;96.99
11001;BME280;5553;48.506;8.870;2023-05-19T10:24:26;96732.63;;;13.25;93.84
11001;BME280;5553;48.506;8.870;2023-05-19T10:26:57;96748.25;;;13.07;95.51
11001;BME280;5553;48.506;8.870;2023-05-19T10:29:30;96739.88;;;12.97;95.67
11001;BME280;5553;48.506;8.870;2023-05-19T10:32:03;96732.91;;;12.69;95.39
11001;BME280;5553;48.506;8.870;2023-05-19T10:37:43;96745.97;;;12.84;95.66
11001;BME280;5553;48.506;8.870;2023-05-19T10:40:20;96743.47;;;12.69;96.14
11001;BME280;5553;48.506;8.870;2023-05-19T10:43:03;96748.59;;;12.77;96.98
11001;BME280;5553;48.506;8.870;2023-05-19T10:45:44;96744.47;;;12.68;96.90
11001;BME280;5553;48.506;8.870;2023-05-19T10:48:14;96741.75;;;12.42;96.46
11001;BME280;5553;48.506;8.870;2023-05-19T10:50:43;96744.47;;;12.55;96.39
11001;BME280;5553;48.506;8.870;2023-05-19T10:53:16;96751.59;;;12.61;96.47
11001;BME280;5553;48.506;8.870;2023-05-19T10:55:50;96741.56;;;12.50;96.53
11001;BME280;5553;48.506;8.870;2023-05-19T10:58:39;96760.31;;;12.48;98.10
11001;BME280;5553;48.506;8.870;2023-05-19T11:01:17;96742.63;;;12.55;96.25
11001;BME280;5553;48.506;8.870;2023-05-19T11:03:47;96767.88;;;12.58;98.07
11001;BME280;5553;48.506;8.870;2023-05-19T11:06:24;96750.16;;;12.59;97.86
11001;BME280;5553;48.506;8.870;2023-05-19T11:08:56;96759.28;;;12.49;98.83
11001;BME280;5553;48.506;8.870;2023-05-19T11:11:43;96743.78;;;12.40;96.44
11001;BME280;5553;48.506;8.870;2023-05-19T11:14:13;96746.66;;;12.45;96.30
11001;BME280;5553;48.506;8.870;2023-05-19T11:16:45;96740.22;;;12.67;95.42
11001;BME280;5553;48.506;8.870;2023-05-19T11:19:18;96747.34;;;12.73;96.66
11001;BME280;5553;48.506;8.870;2023-05-19T11:21:47;96756.38;;;12.99;98.02
11001;BME280;5553;48.506;8.870;2023-05-19T11:24:32;96750.09;;;13.13;97.30
11001;BME280;5553;48.506;8.870;2023-05-19T11:27:21;96738.28;;;13.02;95.89
11001;BME280;5553;48.506;8.870;2023-05-19T11:29:50;96732.63;;;13.25;93.63
11001;BME280;5553;48.506;8.870;2023-05-19T11:32:20;96717.13;;;13.36;92.03
11001;BME280;5553;48.506;8.870;2023-05-19T11:34:48;96737.53;;;13.42;93.65
11001;BME280;5553;48.506;8.870;2023-05-19T11:37:17;96732.00;;;13.50;92.90
11001;BME280;5553;48.506;8.870;2023-05-19T11:39:45;96715.09;;;13.51;91.15
11001;BME280;5553;48.506;8.870;2023-05-19T11:42:14;96708.16;;;13.57;90.29
11001;BME280;5553;48.506;8.870;2023-05-19T11:44:45;96713.03;;;13.73;89.80
11001;BME280;5553;48.506;8.870;2023-05-19T11:47:15;96725.31;;;13.47;91.71
11001;BME280;5553;48.506;8.870;2023-05-19T11:49:44;96724.91;;;13.44;91.70
11001;BME280;5553;48.506;8.870;2023-05-19T11:52:16;96711.00;;;13.28;90.49
11001;BME280;5553;48.506;8.870;2023-05-19T11:54:47;96716.72;;;13.45;90.55
11001;BME280;5553;48.506;8.870;2023-05-19T11:57:17;96725.69;;;13.38;91.81
11001;BME280;5553;48.506;8.870;2023-05-19T11:59:49;96732.81;;;13.70;92.53
11001;BME280;5553;48.506;8.870;2023-05-19T12:02:22;96717.53;;;13.59;91.12
11001;BME280;5553;48.506;8.870;2023-05-19T12:04:51;96718.16;;;13.61;91.28
11001;BME280;5553;48.506;8.870;2023-05-19T12:07:22;96729.97;;;13.65;93.58
11001;BME280;5553;48.506;8.870;2023-05-19T12:09:51;96728.94;;;13.60;92.86
11001;BME280;5553;48.506;8.870;2023-05-19T12:12:21;96725.91;;;13.49;92.96
11001;BME280;5553;48.506;8.870;2023-05-19T12:14:52;96736.09;;;13.52;93.64
11001;BME280;5553;48.506;8.870;2023-05-19T12:17:20;96719.16;;;13.60;91.32
11001;BME280;5553;48.506;8.870;2023-05-19T12:19:49;96718.56;;;13.51;91.78
11001;BME280;5553;48.506;8.870;2023-05-19T12:22:18;96746.88;;;13.78;93.68
11001;BME280;5553;48.506;8.870;2023-05-19T12:24:46;96733.84;;;13.56;93.29
11001;BME280;5553;48.506;8.870;2023-05-19T12:27:18;96721.22;;;13.58;91.73
11001;BME280;5553;48.506;8.870;2023-05-19T12:29:53;96730.16;;;13.57;92.74
11001;BME280;5553;48.506;8.870;2023-05-19T12:32:22;96730.59;;;13.61;91.89
11001;BME280;5553;48.506;8.870;2023-05-19T12:34:51;96736.72;;;13.35;92.85
11001;BME280;5553;48.506;8.870;2023-05-19T12:37:19;96727.72;;;13.36;91.40
11001;BME280;5553;48.506;8.870;2023-05-19T12:39:49;96723.25;;;13.36;90.50
11001;BME280;5553;48.506;8.870;2023-05-19T12:42:17;96739.97;;;13.37;92.83
11001;BME280;5553;48.506;8.870;2023-05-19T12:44:47;96721.22;;;13.25;91.78
11001;BME280;5553;48.506;8.870;2023-05-19T12:47:19;96750.78;;;13.55;93.64
11001;BME280;5553;48.506;8.870;2023-05-19T12:49:54;96730.19;;;13.31;90.72
11001;BME280;5553;48.506;8.870;2023-05-19T12:52:23;96738.72;;;13.33;91.28
11001;BME280;5553;48.506;8.870;2023-05-19T12:54:57;96734.22;;;13.20;91.77
11001;BME280;5553;48.506;8.870;2023-05-19T12:57:26;96735.28;;;13.32;92.33
11001;BME280;5553;48.506;8.870;2023-05-19T12:59:59;96739.13;;;13.36;91.87
11001;BME280;5553;48.506;8.870;2023-05-19T13:02:32;96734.06;;;13.48;91.37
11001;BME280;5553;48.506;8.870;2023-05-19T13:05:01;96722.84;;;13.46;90.88
11001;BME280;5553;48.506;8.870;2023-05-19T13:07:29;96723.25;;;13.56;90.13
11001;BME280;5553;48.506;8.870;2023-05-19T13:09:59;96734.25;;;13.40;92.38
11001;BME280;5553;48.506;8.870;2023-05-19T13:12:28;96740.19;;;13.62;92.82
11001;BME280;5553;48.506;8.870;2023-05-19T13:14:56;96750.56;;;13.43;94.22
11001;BME280;5553;48.506;8.870;2023-05-19T13:17:24;96735.69;;;13.42;93.57
11001;BME280;5553;48.506;8.870;2023-05-19T13:19:55;96734.06;;;13.41;93.12
11001;BME280;5553;48.506;8.870;2023-05-19T13:22:23;96746.47;;;13.67;93.86
11001;BME280;5553;48.506;8.870;2023-05-19T13:24:52;96749.13;;;13.74;93.97
11001;BME280;5553;48.506;8.870;2023-05-19T13:27:23;96730.97;;;13.78;92.11
11001;BME280;5553;48.506;8.870;2023-05-19T13:29:51;96705.50;;;13.50;90.64
11001;BME280;5553;48.506;8.870;2023-05-19T13:32:20;96699.59;;;13.61;90.74